Annette Island Airport Annette US
ICAO: PANT
IATA:
Category: Medium
Scheduled Services:

Elevation: 119 ft
TransAlt. 18000 ft.

Airport Communications:
ASOS:135.75
CTAF:122.9
KETCHIKAN RDO:122.4

PANT Zoom In..

Runways:

(A) RW 02 length 5709 ft width 150 ft
---- / hdg 20

(B) RW 12 length 7493 ft width 150 ft
---- / hdg 124

(C) RW 20 length 5709 ft width 150 ft
---- / hdg 200

(D) RW 30 length 7493 ft width 150 ft
---- / hdg 304

Location; PANT
Day. 24 / Time. 12.53 Zulu
* Altimeter: 29.99
* Temperature: 06° c. 42.8°f.
* Wind from: 000° Speed 00 kn.
Dewpoint: 06° c.
Visibility: 10 Statute Miles.
Clouds: Broken 3700 ft.

PANT 241253Z AUTO 00000KT 10SM BKN037 06/06 A2999 RMK SLP155 T00610061 TSNO VIA AUTODIAL


Wind - Calm.

 
 
jpsmedia.com for Web Design SOUNDCLOUD worldairports.se 2018   terms of use